Time;durP1;ratioP1;P1;durP2;ratioP2;P2;SDS_P1;SDS_P2;PMS_P1;PMS_P2;Temp;Humidity;BMP_temperature;BMP_pressure;BME280_temperature;BME280_humidity;BME280_pressure;Samples;Min_cycle;Max_cycle;Signal;HPM_P1;HPM_P2
2023/08/23 00:03:18;;;;;;;4.30;3.67;;;;;;;25.00;57.05;100486.06;10339786;28;20195;-46
2023/08/23 00:08:19;;;;;;;6.70;3.78;;;;;;;24.98;56.10;100472.66;10340995;28;20644;-45
2023/08/23 00:13:22;;;;;;;5.45;4.10;;;;;;;24.96;57.42;100474.75;10341550;28;20588;-45
2023/08/23 00:18:23;;;;;;;3.90;3.28;;;;;;;24.91;59.21;100460.13;10340778;28;20061;-46
2023/08/23 00:23:25;;;;;;;5.95;3.55;;;;;;;24.80;56.35;100467.91;10326597;28;20092;-45
2023/08/23 00:28:26;;;;;;;4.22;3.50;;;;;;;24.77;55.75;100459.28;10340899;28;20056;-45
2023/08/23 00:33:28;;;;;;;3.22;3.03;;;;;;;24.61;58.89;100466.03;10341990;28;20046;-45
2023/08/23 00:38:29;;;;;;;3.95;2.97;;;;;;;24.66;57.66;100463.50;10338209;28;20214;-45
2023/08/23 00:43:31;;;;;;;4.15;2.92;;;;;;;24.60;57.80;100454.28;10341030;28;20056;-45
2023/08/23 00:48:32;;;;;;;4.97;3.25;;;;;;;24.63;59.01;100467.47;10341060;28;21751;-45
2023/08/23 00:53:35;;;;;;;7.50;3.80;;;;;;;24.65;58.44;100462.69;10340413;28;20053;-45
2023/08/23 00:58:37;;;;;;;5.68;3.22;;;;;;;24.61;57.42;100466.88;10338948;28;20064;-45
2023/08/23 01:03:39;;;;;;;4.25;3.50;;;;;;;24.60;57.87;100462.47;10340687;28;20301;-45
2023/08/23 01:09:01;;;;;;;4.43;3.50;;;;;;;24.58;57.71;100452.81;10343338;28;20053;-45
2023/08/23 01:14:05;;;;;;;3.73;3.07;;;;;;;24.55;57.96;100455.97;10338416;28;20128;-45
2023/08/23 01:19:22;;;;;;;4.68;3.88;;;;;;;24.45;59.48;100456.38;10341915;28;20683;-45
2023/08/23 01:24:24;;;;;;;9.48;3.95;;;;;;;24.46;57.94;100468.94;10340733;28;20054;-44
2023/08/23 01:29:26;;;;;;;4.40;3.70;;;;;;;24.35;58.40;100459.53;10340160;28;20053;-45
2023/08/23 01:34:29;;;;;;;4.65;3.53;;;;;;;24.27;58.07;100465.16;10343006;28;20158;-46
2023/08/23 01:39:33;;;;;;;5.50;3.70;;;;;;;24.32;58.66;100473.53;10342545;28;20064;-44
2023/08/23 01:44:34;;;;;;;4.80;3.47;;;;;;;24.30;59.15;100473.72;10336092;28;20065;-45
2023/08/23 01:49:35;;;;;;;5.95;3.20;;;;;;;24.28;59.66;100477.72;10313986;28;20725;-45
2023/08/23 01:54:37;;;;;;;6.00;3.75;;;;;;;24.27;59.13;100463.28;10339945;28;20050;-45
2023/08/23 01:59:38;;;;;;;7.65;3.67;;;;;;;24.26;58.62;100467.06;10345374;28;20553;-45
2023/08/23 02:04:40;;;;;;;5.78;3.90;;;;;;;24.18;59.23;100461.81;10349476;28;20079;-45
2023/08/23 02:09:41;;;;;;;4.85;4.28;;;;;;;24.19;59.37;100468.94;10345659;28;20504;-45
2023/08/23 02:14:43;;;;;;;5.90;3.80;;;;;;;24.17;60.33;100463.69;10349348;28;20053;-45
2023/08/23 02:19:44;;;;;;;5.57;3.90;;;;;;;24.14;59.60;100468.69;10347386;28;20045;-45
2023/08/23 02:24:46;;;;;;;5.07;4.43;;;;;;;23.97;58.62;100447.34;10345398;28;20658;-45
2023/08/23 02:29:47;;;;;;;6.45;4.68;;;;;;;24.02;59.23;100456.78;10345736;28;20046;-45
2023/08/23 02:34:48;;;;;;;7.07;4.85;;;;;;;23.95;59.08;100454.88;10331801;28;20050;-45
2023/08/23 02:39:50;;;;;;;4.88;4.03;;;;;;;23.90;59.50;100453.81;10344037;28;20057;-45
2023/08/23 02:44:51;;;;;;;4.53;4.10;;;;;;;23.88;59.38;100445.88;10347831;28;20382;-51
2023/08/23 02:49:53;;;;;;;5.78;4.18;;;;;;;23.85;59.52;100443.56;10317612;28;20215;-44
2023/08/23 02:54:54;;;;;;;4.60;4.03;;;;;;;23.80;59.50;100443.34;10347781;28;20360;-45
2023/08/23 02:59:56;;;;;;;6.03;4.65;;;;;;;23.78;59.25;100442.69;10344589;28;20192;-44
2023/08/23 03:04:57;;;;;;;9.75;4.85;;;;;;;23.76;59.46;100442.06;10335401;28;20086;-43
2023/08/23 03:09:58;;;;;;;5.45;4.55;;;;;;;23.69;59.58;100447.50;10342459;28;20426;-45
2023/08/23 03:15:00;;;;;;;6.53;4.60;;;;;;;23.66;59.99;100442.47;10344097;28;20066;-45
2023/08/23 03:20:02;;;;;;;5.22;4.72;;;;;;;23.60;60.50;100438.69;10344669;28;20057;-45
2023/08/23 03:25:04;;;;;;;4.68;3.58;;;;;;;23.61;60.54;100437.63;10346519;28;20711;-45
2023/08/23 03:30:06;;;;;;;5.07;4.47;;;;;;;23.57;60.11;100443.69;10328652;28;20478;-45
2023/08/23 03:35:07;;;;;;;4.67;4.23;;;;;;;23.54;59.96;100444.94;10344309;28;20226;-45
2023/08/23 03:40:09;;;;;;;7.90;4.70;;;;;;;23.43;60.11;100431.94;10347788;28;20140;-44
2023/08/23 03:45:11;;;;;;;7.82;5.25;;;;;;;23.35;60.98;100424.00;10344651;28;20085;-45
2023/08/23 03:50:12;;;;;;;6.22;5.05;;;;;;;23.32;60.44;100421.69;10345143;28;20057;-45
2023/08/23 03:55:14;;;;;;;7.65;4.88;;;;;;;23.27;60.97;100423.13;10341779;28;20057;-45
2023/08/23 04:00:15;;;;;;;6.32;4.97;;;;;;;23.22;61.33;100433.75;10341752;28;20903;-44
2023/08/23 04:05:17;;;;;;;5.28;4.75;;;;;;;23.21;61.59;100432.09;10343837;28;20544;-50
2023/08/23 04:10:18;;;;;;;6.50;4.88;;;;;;;23.16;62.07;100448.13;10333354;28;20199;-45
2023/08/23 04:15:20;;;;;;;7.72;5.40;;;;;;;23.15;62.13;100443.75;10338691;28;20524;-45
2023/08/23 04:20:21;;;;;;;5.07;4.57;;;;;;;23.12;62.09;100449.59;10341932;28;20053;-44
2023/08/23 04:25:23;;;;;;;8.93;6.38;;;;;;;23.12;61.51;100446.88;10340477;28;20145;-45
2023/08/23 04:30:24;;;;;;;6.38;5.10;;;;;;;23.07;62.57;100450.13;10343392;28;20080;-45
2023/08/23 04:35:25;;;;;;;5.10;4.60;;;;;;;23.03;62.66;100440.75;10341812;28;20053;-45
2023/08/23 04:40:28;;;;;;;6.80;5.45;;;;;;;23.07;62.54;100446.59;10341656;28;20053;-45
2023/08/23 04:45:29;;;;;;;7.97;5.87;;;;;;;22.99;62.88;100447.59;10331324;28;20075;-44
2023/08/23 04:50:33;;;;;;;8.05;5.57;;;;;;;22.92;63.19;100436.72;10344111;28;20045;-44
2023/08/23 04:55:35;;;;;;;6.00;5.47;;;;;;;22.94;63.27;100450.91;10331031;28;20048;-43
2023/08/23 05:00:36;;;;;;;5.90;5.30;;;;;;;22.91;64.08;100454.03;10340096;28;20183;-44
2023/08/23 05:05:37;;;;;;;7.72;6.18;;;;;;;22.88;63.19;100449.00;10337918;28;20046;-44
2023/08/23 05:10:39;;;;;;;9.65;6.05;;;;;;;22.91;63.41;100462.19;10328379;28;20061;-54
2023/08/23 05:15:40;;;;;;;6.55;5.95;;;;;;;22.89;63.77;100452.53;10336702;28;20502;-54
2023/08/23 05:20:42;;;;;;;6.72;6.00;;;;;;;22.85;63.30;100462.13;10329247;28;20057;-54
2023/08/23 05:25:43;;;;;;;7.32;6.15;;;;;;;22.81;64.90;100461.69;10338778;28;20069;-53
2023/08/23 05:30:45;;;;;;;7.90;5.90;;;;;;;22.80;64.22;100465.44;10320807;28;20074;-54
2023/08/23 05:35:47;;;;;;;6.43;5.93;;;;;;;22.71;63.71;100477.47;10333228;28;20422;-55
2023/08/23 05:40:50;;;;;;;6.63;6.03;;;;;;;22.72;63.65;100473.75;10326832;28;20363;-55
2023/08/23 05:45:54;;;;;;;7.10;6.40;;;;;;;22.69;64.00;100479.56;10324748;28;20496;-54
2023/08/23 05:50:56;;;;;;;18.58;16.67;;;;;;;22.65;64.14;100483.69;10344071;28;20046;-54
2023/08/23 05:55:57;;;;;;;8.18;7.13;;;;;;;22.70;64.81;100492.06;10332162;28;21154;-54
2023/08/23 06:00:59;;;;;;;7.68;6.13;;;;;;;22.80;64.85;100500.72;10344394;28;20691;-54
2023/08/23 06:06:00;;;;;;;7.72;6.95;;;;;;;22.85;65.24;100500.97;10343131;28;20067;-55
2023/08/23 06:11:03;;;;;;;8.25;6.25;;;;;;;22.88;63.97;100491.56;10342209;28;20049;-57
2023/08/23 06:16:04;;;;;;;9.47;6.57;;;;;;;22.94;63.88;100493.50;10337341;28;20132;-54
2023/08/23 06:21:06;;;;;;;11.25;6.05;;;;;;;22.95;63.66;100503.31;10338505;28;20129;-55
2023/08/23 06:26:08;;;;;;;9.27;6.72;;;;;;;23.10;64.43;100505.94;10337935;28;20458;-55
2023/08/23 06:31:18;;;;;;;6.75;6.15;;;;;;;23.23;63.43;100497.88;10318238;28;20116;-54
2023/08/23 06:36:20;;;;;;;7.07;5.50;;;;;;;23.03;63.77;100505.88;10335649;28;20593;-54
2023/08/23 06:41:21;;;;;;;7.07;5.43;;;;;;;23.22;64.42;100501.63;10336371;28;20057;-54
2023/08/23 06:46:23;;;;;;;6.40;5.75;;;;;;;23.29;63.10;100502.50;10336361;28;20691;-54
2023/08/23 06:51:27;;;;;;;6.75;5.45;;;;;;;23.42;63.20;100509.03;10331231;28;20188;-58
2023/08/23 06:56:29;;;;;;;6.72;6.13;;;;;;;23.63;62.57;100517.06;10331625;28;20041;-54
2023/08/23 07:01:30;;;;;;;7.43;5.03;;;;;;;23.68;62.41;100507.50;10333015;28;20056;-54
2023/08/23 07:06:32;;;;;;;9.02;5.45;;;;;;;23.88;61.72;100511.13;10321272;28;20730;-55
2023/08/23 07:11:34;;;;;;;10.00;5.10;;;;;;;24.07;62.77;100514.09;10317005;28;20193;-55
2023/08/23 07:16:35;;;;;;;8.63;4.43;;;;;;;24.21;61.64;100521.22;10333498;28;20068;-55
2023/08/23 07:21:37;;;;;;;6.85;4.63;;;;;;;24.31;62.24;100531.72;10330920;28;20073;-55
2023/08/23 07:26:39;;;;;;;6.18;5.53;;;;;;;24.43;60.43;100518.34;10331853;28;20638;-54
2023/08/23 07:31:40;;;;;;;5.68;5.03;;;;;;;24.53;60.19;100530.47;10321397;28;21579;-54
2023/08/23 07:36:42;;;;;;;5.45;3.95;;;;;;;24.69;59.43;100522.97;10335799;28;20123;-54
2023/08/23 07:41:44;;;;;;;4.68;3.58;;;;;;;24.90;59.24;100519.16;10325426;28;20374;-53
2023/08/23 07:46:45;;;;;;;7.63;4.85;;;;;;;24.98;58.44;100513.50;10341790;28;20065;-54
2023/08/23 07:51:48;;;;;;;9.27;8.32;;;;;;;25.15;58.29;100534.84;10339556;28;20063;-53
2023/08/23 07:56:49;;;;;;;6.82;4.88;;;;;;;25.21;58.11;100531.25;10340993;28;20535;-54
2023/08/23 08:01:51;;;;;;;4.75;4.30;;;;;;;25.34;58.06;100534.00;10341145;28;20088;-54
2023/08/23 08:06:53;;;;;;;4.70;4.30;;;;;;;25.32;57.84;100517.00;10341461;28;20054;-55
2023/08/23 08:11:55;;;;;;;5.15;4.63;;;;;;;25.52;57.29;100529.72;10340147;28;20068;-55
2023/08/23 08:16:56;;;;;;;5.90;4.00;;;;;;;25.60;57.08;100510.41;10336609;28;20371;-55
2023/08/23 08:21:58;;;;;;;7.20;4.32;;;;;;;25.87;56.07;100523.91;10337672;28;20050;-55
2023/08/23 08:26:59;;;;;;;6.25;4.00;;;;;;;25.92;56.04;100529.53;10319866;28;20068;-54
2023/08/23 08:32:01;;;;;;;7.05;3.90;;;;;;;26.03;56.00;100523.44;10335816;28;20110;-55
2023/08/23 08:37:04;;;;;;;7.47;3.73;;;;;;;26.01;55.98;100503.69;10332873;28;20494;-56
2023/08/23 08:42:06;;;;;;;6.60;3.65;;;;;;;26.41;55.82;100522.53;10322340;28;20049;-55
2023/08/23 08:47:08;;;;;;;6.63;2.88;;;;;;;26.68;53.99;100529.69;10334791;28;20477;-54
2023/08/23 08:52:12;;;;;;;6.82;3.97;;;;;;;26.79;52.93;100537.97;10315580;28;20275;-56
2023/08/23 08:57:14;;;;;;;3.88;3.40;;;;;;;26.83;53.37;100537.53;10335229;28;20583;-56
2023/08/23 09:02:18;;;;;;;5.88;3.65;;;;;;;27.12;52.37;100530.53;10336344;28;20096;-55
2023/08/23 09:07:20;;;;;;;5.65;2.85;;;;;;;27.27;52.68;100517.31;10322319;28;20129;-56
2023/08/23 09:12:21;;;;;;;3.33;2.60;;;;;;;27.58;51.52;100522.88;10337560;28;20069;-56
2023/08/23 09:17:23;;;;;;;8.23;4.43;;;;;;;27.68;50.14;100521.28;10322102;28;20423;-56
2023/08/23 09:22:24;;;;;;;6.00;3.03;;;;;;;27.67;48.68;100518.78;10335972;28;20060;-56
2023/08/23 09:27:26;;;;;;;4.78;3.28;;;;;;;27.74;49.01;100522.25;10321731;28;20300;-54
2023/08/23 09:32:39;;;;;;;5.15;3.60;;;;;;;28.01;48.23;100510.97;10334747;28;20061;-55
2023/08/23 09:37:46;;;;;;;7.22;2.90;;;;;;;28.12;48.78;100499.22;10339420;28;20206;-55
2023/08/23 09:42:50;;;;;;;4.32;2.80;;;;;;;28.35;47.89;100505.81;10330054;28;20057;-55
2023/08/23 09:47:53;;;;;;;3.78;3.08;;;;;;;28.51;47.68;100494.19;10332109;28;20638;-55
2023/08/23 09:53:15;;;;;;;4.90;3.25;;;;;;;28.63;48.03;100496.09;10330841;28;20414;-55
2023/08/23 09:58:17;;;;;;;6.28;3.08;;;;;;;28.83;46.49;100496.59;10317088;28;20057;-55
2023/08/23 10:03:20;;;;;;;4.88;2.92;;;;;;;28.96;47.03;100494.66;10334092;28;20236;-54
2023/08/23 10:08:23;;;;;;;4.38;2.70;;;;;;;29.03;46.69;100496.22;10334285;28;20065;-54
2023/08/23 10:13:25;;;;;;;4.10;2.22;;;;;;;29.33;46.53;100499.88;10332763;28;20097;-55
2023/08/23 10:18:30;;;;;;;4.18;2.03;;;;;;;29.54;45.31;100490.16;10336095;28;20327;-60
2023/08/23 10:23:36;;;;;;;7.05;2.72;;;;;;;29.65;44.91;100496.69;10341184;28;20183;-54
2023/08/23 10:28:47;;;;;;;7.57;3.72;;;;;;;29.96;42.67;100478.91;10337579;28;20144;-54
2023/08/23 10:33:54;;;;;;;5.05;3.15;;;;;;;30.20;42.73;100496.06;10323674;28;20061;-56
2023/08/23 10:38:57;;;;;;;4.57;2.53;;;;;;;30.04;42.01;100491.41;10339089;28;20065;-55
2023/08/23 10:43:59;;;;;;;4.10;2.50;;;;;;;30.22;42.23;100482.94;10342957;28;20485;-55
2023/08/23 10:49:01;;;;;;;4.47;1.77;;;;;;;30.47;41.11;100489.97;10341115;28;20052;-56
2023/08/23 10:54:03;;;;;;;;;;;;;;;30.72;39.82;100485.97;10329870;28;20154;-56
2023/08/23 10:59:08;;;;;;;3.88;1.85;;;;;;;30.93;39.80;100479.66;10341989;28;19925;-55
2023/08/23 11:04:10;;;;;;;3.55;2.33;;;;;;;30.94;37.93;100480.47;10328872;28;20057;-55
2023/08/23 11:09:11;;;;;;;;;;;;;;;31.15;38.53;100476.97;10325905;28;20049;-54
2023/08/23 11:14:13;;;;;;;3.33;1.97;;;;;;;31.43;38.60;100466.03;10338427;28;19941;-56
2023/08/23 11:19:15;;;;;;;4.45;2.17;;;;;;;31.35;37.58;100470.88;10336898;28;20049;-55
2023/08/23 11:24:17;;;;;;;4.07;1.75;;;;;;;31.27;38.99;100463.09;10340896;28;20795;-55
2023/08/23 11:29:19;;;;;;;3.92;2.22;;;;;;;31.30;38.34;100458.97;10334163;28;20570;-55
2023/08/23 11:34:20;;;;;;;3.88;1.83;;;;;;;31.77;38.47;100472.19;10339312;28;20045;-54
2023/08/23 11:39:22;;;;;;;;;;;;;;;32.12;37.59;100464.56;10340495;28;20069;-54
2023/08/23 11:44:26;;;;;;;2.07;1.60;;;;;;;32.38;37.41;100476.59;10320005;28;20376;-54
2023/08/23 11:49:28;;;;;;;3.17;1.80;;;;;;;32.43;37.27;100465.66;10316922;28;20127;-55
2023/08/23 11:54:29;;;;;;;3.95;2.25;;;;;;;32.68;37.38;100455.91;10335048;28;20216;-56
2023/08/23 11:59:31;;;;;;;5.18;2.50;;;;;;;32.90;36.26;100444.75;10335991;28;20092;-56
2023/08/23 12:04:33;;;;;;;4.57;2.22;;;;;;;32.93;37.34;100449.72;10325182;28;20065;-55
2023/08/23 12:09:35;;;;;;;3.28;2.35;;;;;;;33.15;35.81;100446.78;10341193;28;20134;-55
2023/08/23 12:14:37;;;;;;;4.55;1.80;;;;;;;32.68;36.50;100447.63;10339525;28;20429;-55
2023/08/23 12:19:38;;;;;;;2.80;2.38;;;;;;;32.54;36.51;100441.75;10324864;28;20162;-55
2023/08/23 12:24:40;;;;;;;2.63;2.28;;;;;;;32.59;36.48;100428.00;10337187;28;20053;-55
2023/08/23 12:29:42;;;;;;;3.63;2.00;;;;;;;32.94;37.06;100440.34;10320563;28;20452;-61
2023/08/23 12:34:44;;;;;;;;;;;;;;;33.02;35.88;100439.81;10337734;28;20592;-54
2023/08/23 12:39:45;;;;;;;2.55;1.83;;;;;;;33.13;35.85;100438.78;10337673;28;20573;-54
2023/08/23 12:44:47;;;;;;;3.90;1.95;;;;;;;33.16;35.31;100436.56;10336451;28;20049;-55
2023/08/23 12:49:48;;;;;;;3.78;1.88;;;;;;;33.33;34.94;100431.72;10338609;28;20780;-54
2023/08/23 12:54:50;;;;;;;;;;;;;;;33.15;34.87;100429.38;10333802;28;20502;-55
2023/08/23 12:59:51;;;;;;;2.08;1.50;;;;;;;32.55;36.12;100426.88;10317437;28;20408;-54
2023/08/23 13:04:53;;;;;;;;;;;;;;;32.57;35.07;100420.00;10326769;28;20054;-55
2023/08/23 13:09:54;;;;;;;4.23;1.90;;;;;;;32.47;35.82;100413.59;10321583;28;20600;-56
2023/08/23 13:14:56;;;;;;;3.40;2.40;;;;;;;32.29;36.47;100412.09;10335286;28;20100;-56
2023/08/23 13:19:57;;;;;;;;;;;;;;;32.29;35.68;100406.59;10321655;28;20053;-57
2023/08/23 13:24:59;;;;;;;2.53;1.70;;;;;;;32.34;35.82;100421.22;10335851;28;19979;-56
2023/08/23 13:30:00;;;;;;;3.25;2.20;;;;;;;32.36;35.58;100408.03;10330574;28;20299;-54
2023/08/23 13:35:02;;;;;;;3.38;1.65;;;;;;;32.04;36.67;100411.63;10312661;28;20056;-55
2023/08/23 13:40:06;;;;;;;;;;;;;;;32.08;35.89;100401.75;10322391;28;20457;-55
2023/08/23 13:45:08;;;;;;;2.20;1.85;;;;;;;31.75;35.56;100400.06;10333381;28;19925;-54
2023/08/23 13:50:10;;;;;;;2.65;1.77;;;;;;;31.68;35.64;100392.03;10337848;28;20064;-54
2023/08/23 13:55:11;;;;;;;2.38;1.60;;;;;;;31.60;36.07;100389.75;10341138;28;20053;-54
2023/08/23 14:00:13;;;;;;;;;;;;;;;31.62;34.92;100373.84;10340022;28;20059;-53
2023/08/23 14:05:15;;;;;;;2.10;1.40;;;;;;;31.55;35.38;100381.47;10342876;28;20435;-55
2023/08/23 14:10:16;;;;;;;2.80;1.80;;;;;;;31.46;35.29;100372.00;10328971;28;20289;-55
2023/08/23 14:15:18;;;;;;;3.25;1.73;;;;;;;31.26;35.73;100361.63;10324377;28;20156;-54
2023/08/23 14:20:20;;;;;;;4.25;1.65;;;;;;;31.20;35.82;100352.50;10324911;28;20091;-53
2023/08/23 14:25:21;;;;;;;3.58;1.80;;;;;;;31.17;36.28;100355.75;10344832;28;20128;-54
2023/08/23 14:30:22;;;;;;;2.38;1.40;;;;;;;31.00;36.44;100342.94;10336492;28;20134;-55
2023/08/23 14:35:24;;;;;;;4.15;1.02;;;;;;;30.85;34.99;100348.19;10340278;28;20727;-56
2023/08/23 14:40:25;;;;;;;1.55;1.05;;;;;;;30.67;33.30;100346.59;10340653;28;20050;-55
2023/08/23 14:45:27;;;;;;;2.42;0.90;;;;;;;30.57;32.90;100350.06;10342361;28;20053;-56
2023/08/23 14:50:29;;;;;;;2.63;1.30;;;;;;;30.46;32.33;100349.09;10341907;28;20056;-55
2023/08/23 14:55:32;;;;;;;;;;;;;;;30.40;32.72;100349.22;10317400;28;20077;-56
2023/08/23 15:00:35;;;;;;;2.38;1.50;;;;;;;30.34;35.15;100356.56;10325364;28;20436;-53
2023/08/23 15:05:37;;;;;;;3.15;1.85;;;;;;;30.22;36.58;100353.94;10309300;28;20765;-53
2023/08/23 15:10:38;;;;;;;2.22;1.40;;;;;;;30.09;35.30;100348.78;10341888;28;20048;-54
2023/08/23 15:15:40;;;;;;;2.25;1.30;;;;;;;29.94;33.26;100347.47;10337938;28;20065;-55
2023/08/23 15:20:42;;;;;;;5.17;1.20;;;;;;;29.90;31.97;100340.81;10340636;28;21663;-54
2023/08/23 15:25:46;;;;;;;1.52;1.08;;;;;;;29.81;33.11;100339.56;10325406;28;20437;-54
2023/08/23 15:30:47;;;;;;;1.58;1.10;;;;;;;29.88;32.25;100353.94;10316750;28;20842;-57
2023/08/23 15:35:49;;;;;;;2.00;1.55;;;;;;;29.88;32.85;100348.47;10339930;28;20140;-54
2023/08/23 15:40:50;;;;;;;3.77;1.53;;;;;;;29.82;32.29;100341.22;10336287;28;20662;-54
2023/08/23 15:45:52;;;;;;;2.53;1.35;;;;;;;29.79;32.94;100355.41;10321004;28;20590;-53
2023/08/23 15:50:54;;;;;;;1.50;1.10;;;;;;;29.71;32.41;100347.59;10340400;28;20263;-53
2023/08/23 15:55:58;;;;;;;2.58;2.35;;;;;;;29.65;32.22;100349.44;10336580;28;20155;-54
2023/08/23 16:00:59;;;;;;;3.10;1.10;;;;;;;29.57;31.87;100349.81;10334905;28;20053;-53
2023/08/23 16:06:01;;;;;;;3.30;1.60;;;;;;;29.56;32.01;100340.78;10334201;28;20053;-53
2023/08/23 16:11:03;;;;;;;3.20;1.33;;;;;;;29.49;31.21;100334.63;10330461;28;20052;-53
2023/08/23 16:16:04;;;;;;;3.57;1.07;;;;;;;29.42;31.70;100328.44;10338289;28;20081;-53
2023/08/23 16:21:06;;;;;;;2.35;1.60;;;;;;;29.43;31.56;100335.59;10323670;28;20124;-53
2023/08/23 16:26:08;;;;;;;3.87;1.60;;;;;;;29.39;32.24;100326.19;10318351;28;20660;-53
2023/08/23 16:31:09;;;;;;;;;;;;;;;29.33;31.08;100330.75;10333736;28;20811;-53
2023/08/23 16:36:11;;;;;;;3.08;1.48;;;;;;;29.29;30.97;100323.28;10337328;28;19928;-54
2023/08/23 16:41:12;;;;;;;3.85;1.30;;;;;;;29.11;31.43;100308.69;10332798;28;20100;-57
2023/08/23 16:46:14;;;;;;;2.40;1.50;;;;;;;29.12;31.30;100318.56;10335511;28;20064;-55
2023/08/23 16:51:16;;;;;;;3.03;1.52;;;;;;;29.13;31.91;100322.16;10336296;28;20061;-54
2023/08/23 16:56:18;;;;;;;3.40;1.47;;;;;;;29.09;31.33;100319.03;10337401;28;20520;-54
2023/08/23 17:01:19;;;;;;;2.13;1.53;;;;;;;29.05;31.20;100324.19;10336570;28;20110;-54
2023/08/23 17:06:20;;;;;;;2.77;1.50;;;;;;;28.98;31.19;100317.19;10337225;28;20054;-53
2023/08/23 17:11:22;;;;;;;1.73;1.27;;;;;;;28.83;31.27;100304.84;10338326;28;20606;-54
2023/08/23 17:16:25;;;;;;;3.00;1.57;;;;;;;28.72;31.20;100298.34;10337476;28;20716;-53
2023/08/23 17:21:28;;;;;;;3.25;1.73;;;;;;;28.71;31.58;100301.31;10338066;28;20045;-53
2023/08/23 17:26:30;;;;;;;6.20;2.27;;;;;;;28.76;32.41;100315.13;10336384;28;20562;-53
2023/08/23 17:31:32;;;;;;;2.23;1.80;;;;;;;28.77;33.52;100313.22;10332097;28;20134;-54
2023/08/23 17:36:33;;;;;;;5.28;3.40;;;;;;;28.72;33.34;100298.34;10347962;28;20092;-54
2023/08/23 17:41:35;;;;;;;519.30;432.27;;;;;;;28.64;34.46;100300.63;10348396;28;20140;-47
2023/08/23 17:46:38;;;;;;;153.48;122.18;;;;;;;28.54;35.14;100310.25;10347256;28;20371;-49
2023/08/23 17:51:40;;;;;;;57.75;44.28;;;;;;;28.45;35.77;100314.47;10348398;28;20056;-47
2023/08/23 17:56:42;;;;;;;219.53;116.40;;;;;;;28.37;36.51;100323.88;10344754;28;20057;-47
2023/08/23 18:01:44;;;;;;;51.08;30.58;;;;;;;28.31;37.24;100323.97;10348928;28;20060;-48
2023/08/23 18:06:45;;;;;;;13.98;10.10;;;;;;;28.25;37.42;100324.94;10347583;28;20045;-50
2023/08/23 18:11:47;;;;;;;15.85;7.55;;;;;;;28.18;37.75;100331.38;10348748;28;20091;-49
2023/08/23 18:16:48;;;;;;;11.00;8.27;;;;;;;28.07;37.95;100328.63;10350146;28;20663;-50
2023/08/23 18:21:50;;;;;;;6.57;5.40;;;;;;;28.04;38.63;100335.41;10333252;28;20045;-47
2023/08/23 18:26:51;;;;;;;7.15;5.15;;;;;;;27.96;38.79;100333.84;10347015;28;20057;-48
2023/08/23 18:31:53;;;;;;;8.23;4.47;;;;;;;27.92;38.97;100348.22;10343088;28;20056;-48
2023/08/23 18:36:54;;;;;;;5.38;3.28;;;;;;;27.84;39.48;100349.41;10342659;28;20045;-48
2023/08/23 18:41:56;;;;;;;4.07;2.53;;;;;;;27.77;39.54;100352.22;10336425;28;20120;-48
2023/08/23 18:46:57;;;;;;;4.22;2.08;;;;;;;27.67;40.29;100352.00;10339487;28;20537;-48
2023/08/23 18:51:58;;;;;;;4.88;2.70;;;;;;;27.64;40.25;100360.66;10342240;28;20418;-49
2023/08/23 18:57:00;;;;;;;5.20;3.03;;;;;;;27.59;40.43;100350.41;10338639;28;20166;-49
2023/08/23 19:02:04;;;;;;;2.50;1.95;;;;;;;27.51;40.30;100354.31;10338691;28;20061;-48
2023/08/23 19:07:05;;;;;;;4.60;2.33;;;;;;;27.46;40.25;100359.66;10341278;28;20055;-48
2023/08/23 19:12:08;;;;;;;2.90;2.00;;;;;;;27.40;40.48;100351.53;10340848;28;20050;-48
2023/08/23 19:17:11;;;;;;;4.38;1.92;;;;;;;27.33;40.04;100365.31;10343342;28;20052;-48
2023/08/23 19:22:13;;;;;;;3.20;1.90;;;;;;;27.29;40.34;100378.59;10330214;28;20061;-48
2023/08/23 19:27:15;;;;;;;2.73;1.73;;;;;;;27.23;40.27;100373.19;10337117;28;20135;-47
2023/08/23 19:32:16;;;;;;;3.17;1.40;;;;;;;27.17;40.61;100385.88;10325157;28;20046;-48
2023/08/23 19:37:17;;;;;;;2.25;1.67;;;;;;;27.11;41.28;100376.72;10339508;28;21194;-48
2023/08/23 19:42:20;;;;;;;4.93;1.55;;;;;;;27.04;41.85;100392.34;10336858;28;20817;-48
2023/08/23 19:47:21;;;;;;;2.78;1.48;;;;;;;26.89;41.65;100383.69;10337712;28;20195;-48
2023/08/23 19:52:23;;;;;;;2.63;1.33;;;;;;;26.91;41.43;100395.25;10328991;28;20053;-48
2023/08/23 19:57:33;;;;;;;1.60;1.43;;;;;;;26.74;41.23;100397.75;10336373;28;20056;-48
2023/08/23 20:02:39;;;;;;;3.35;1.70;;;;;;;26.74;41.00;100393.13;10339568;28;20545;-49
2023/08/23 20:07:41;;;;;;;2.15;1.38;;;;;;;26.73;41.03;100394.16;10334955;28;20038;-49
2023/08/23 20:12:43;;;;;;;4.32;2.05;;;;;;;26.72;40.98;100395.25;10339652;28;20059;-50
2023/08/23 20:17:44;;;;;;;4.63;2.22;;;;;;;26.67;41.77;100389.63;10344786;28;20060;-48
2023/08/23 20:22:46;;;;;;;3.88;2.55;;;;;;;26.57;41.67;100381.09;10322735;28;20541;-47
2023/08/23 20:27:47;;;;;;;4.65;2.13;;;;;;;26.54;43.27;100379.66;10323432;28;20152;-47
2023/08/23 20:32:52;;;;;;;3.80;3.07;;;;;;;26.54;42.45;100367.91;10320839;28;20045;-48
2023/08/23 20:37:54;;;;;;;4.38;2.40;;;;;;;26.49;42.75;100365.84;10332023;28;20056;-48
2023/08/23 20:42:55;;;;;;;4.78;2.33;;;;;;;26.44;42.14;100372.00;10337438;28;20164;-49
2023/08/23 20:47:57;;;;;;;3.13;2.50;;;;;;;26.37;42.23;100373.94;10321181;28;20079;-47
2023/08/23 20:52:58;;;;;;;3.80;2.33;;;;;;;26.30;42.23;100370.44;10320327;28;21200;-48
2023/08/23 20:58:00;;;;;;;2.90;2.35;;;;;;;26.23;43.41;100372.41;10319160;28;20057;-48
2023/08/23 21:03:01;;;;;;;3.67;2.47;;;;;;;26.21;42.96;100380.81;10336552;28;20168;-47
2023/08/23 21:08:03;;;;;;;3.40;2.60;;;;;;;26.14;43.05;100371.00;10338748;28;20045;-48
2023/08/23 21:13:05;;;;;;;1.75;1.65;;;;;;;26.08;42.62;100373.59;10324449;28;20049;-48
2023/08/23 21:18:07;;;;;;;;;;;;;;;26.04;44.23;100372.34;10340745;28;20060;-48
2023/08/23 21:23:12;;;;;;;4.90;1.92;;;;;;;25.97;44.36;100366.09;10345932;28;20655;-48
2023/08/23 21:28:14;;;;;;;2.80;2.08;;;;;;;25.93;43.97;100367.59;10344598;28;20176;-48
2023/08/23 21:33:15;;;;;;;2.13;1.80;;;;;;;25.89;44.40;100363.66;10338698;28;20611;-48
2023/08/23 21:38:17;;;;;;;2.30;2.10;;;;;;;25.80;44.71;100363.09;10346277;28;20054;-48
2023/08/23 21:43:19;;;;;;;4.43;2.40;;;;;;;25.73;44.63;100374.06;10341300;28;20152;-48
2023/08/23 21:48:24;;;;;;;4.10;2.13;;;;;;;25.65;45.25;100357.94;10325379;28;20068;-47
2023/08/23 21:53:26;;;;;;;3.70;2.10;;;;;;;25.61;45.45;100361.34;10342943;28;20708;-48
2023/08/23 21:58:29;;;;;;;3.25;2.53;;;;;;;25.53;45.40;100363.25;10341032;28;20102;-48
2023/08/23 22:03:36;;;;;;;3.47;2.13;;;;;;;25.47;45.34;100377.78;10340296;28;20074;-48
2023/08/23 22:08:42;;;;;;;4.22;1.80;;;;;;;25.46;46.64;100361.63;10343673;28;20698;-48
2023/08/23 22:13:45;;;;;;;3.42;2.22;;;;;;;25.43;46.71;100360.19;10342731;28;20872;-49
2023/08/23 22:18:48;;;;;;;3.40;1.87;;;;;;;25.36;46.76;100356.69;10347170;28;20160;-48
2023/08/23 22:23:50;;;;;;;3.60;1.55;;;;;;;25.27;46.44;100356.06;10348689;28;20422;-48
2023/08/23 22:28:51;;;;;;;3.22;1.65;;;;;;;25.22;46.36;100353.16;10344372;28;20050;-49
2023/08/23 22:33:53;;;;;;;4.15;2.72;;;;;;;25.17;47.44;100358.44;10346471;28;20061;-49
2023/08/23 22:38:54;;;;;;;2.22;2.00;;;;;;;25.11;47.62;100356.56;10344203;28;20848;-49
2023/08/23 22:43:56;;;;;;;3.63;2.20;;;;;;;25.06;48.56;100352.59;10345906;28;20056;-49
2023/08/23 22:48:57;;;;;;;3.95;2.10;;;;;;;24.98;48.45;100352.88;10349606;28;20549;-49
2023/08/23 22:53:58;;;;;;;3.40;2.30;;;;;;;24.75;49.63;100331.59;10350711;28;20682;-49
2023/08/23 22:59:00;;;;;;;6.53;2.38;;;;;;;24.88;50.01;100358.75;10349721;28;20066;-49
2023/08/23 23:04:01;;;;;;;4.97;2.35;;;;;;;24.86;50.50;100354.56;10337483;28;20136;-48
2023/08/23 23:09:04;;;;;;;3.90;2.72;;;;;;;24.80;51.12;100339.09;10343115;28;20060;-48
2023/08/23 23:14:06;;;;;;;3.67;2.55;;;;;;;24.57;51.43;100310.47;10347945;28;20061;-48